sensor_id;sensor_type;location;lat;lon;timestamp;temperature;humidity
23065;DHT22;17153;51.212;3.228;2022-08-07T00:00:46;22.50;86.00
23065;DHT22;17153;51.212;3.228;2022-08-07T00:03:11;22.50;86.10
23065;DHT22;17153;51.212;3.228;2022-08-07T00:05:37;22.50;86.10
23065;DHT22;17153;51.212;3.228;2022-08-07T00:08:04;22.40;86.10
23065;DHT22;17153;51.212;3.228;2022-08-07T00:10:31;22.40;86.10
23065;DHT22;17153;51.212;3.228;2022-08-07T00:12:59;22.40;86.20
23065;DHT22;17153;51.212;3.228;2022-08-07T00:15:25;22.40;86.20
23065;DHT22;17153;51.212;3.228;2022-08-07T00:17:50;22.40;86.20
23065;DHT22;17153;51.212;3.228;2022-08-07T00:20:16;22.40;86.40
23065;DHT22;17153;51.212;3.228;2022-08-07T00:22:42;22.40;86.40
23065;DHT22;17153;51.212;3.228;2022-08-07T00:25:08;22.30;86.50
23065;DHT22;17153;51.212;3.228;2022-08-07T00:27:34;22.30;86.60
23065;DHT22;17153;51.212;3.228;2022-08-07T00:30:01;22.30;86.70
23065;DHT22;17153;51.212;3.228;2022-08-07T00:32:27;22.30;86.80
23065;DHT22;17153;51.212;3.228;2022-08-07T00:34:52;22.30;86.90
23065;DHT22;17153;51.212;3.228;2022-08-07T00:37:18;22.20;86.90
23065;DHT22;17153;51.212;3.228;2022-08-07T00:39:44;22.30;87.00
23065;DHT22;17153;51.212;3.228;2022-08-07T00:42:10;22.20;87.00
23065;DHT22;17153;51.212;3.228;2022-08-07T00:44:36;22.20;87.10
23065;DHT22;17153;51.212;3.228;2022-08-07T00:47:04;22.20;87.10
23065;DHT22;17153;51.212;3.228;2022-08-07T00:49:30;22.20;87.20
23065;DHT22;17153;51.212;3.228;2022-08-07T00:51:55;22.20;87.20
23065;DHT22;17153;51.212;3.228;2022-08-07T00:54:21;22.20;87.30
23065;DHT22;17153;51.212;3.228;2022-08-07T00:56:47;22.10;87.40
23065;DHT22;17153;51.212;3.228;2022-08-07T00:59:13;22.10;87.50
23065;DHT22;17153;51.212;3.228;2022-08-07T01:01:39;22.10;87.60
23065;DHT22;17153;51.212;3.228;2022-08-07T01:04:05;22.10;87.70
23065;DHT22;17153;51.212;3.228;2022-08-07T01:06:31;22.10;87.80
23065;DHT22;17153;51.212;3.228;2022-08-07T01:08:58;22.00;87.80
23065;DHT22;17153;51.212;3.228;2022-08-07T01:11:24;22.00;87.80
23065;DHT22;17153;51.212;3.228;2022-08-07T01:13:50;22.00;87.90
23065;DHT22;17153;51.212;3.228;2022-08-07T01:16:16;22.00;87.90
23065;DHT22;17153;51.212;3.228;2022-08-07T01:18:42;22.00;88.00
23065;DHT22;17153;51.212;3.228;2022-08-07T01:21:14;21.90;88.00
23065;DHT22;17153;51.212;3.228;2022-08-07T01:23:42;22.00;88.20
23065;DHT22;17153;51.212;3.228;2022-08-07T01:26:10;22.00;89.00
23065;DHT22;17153;51.212;3.228;2022-08-07T01:28:38;21.90;88.40
23065;DHT22;17153;51.212;3.228;2022-08-07T01:31:04;21.90;88.40
23065;DHT22;17153;51.212;3.228;2022-08-07T01:33:30;21.90;88.40
23065;DHT22;17153;51.212;3.228;2022-08-07T01:35:57;21.90;88.50
23065;DHT22;17153;51.212;3.228;2022-08-07T01:38:25;21.90;88.70
23065;DHT22;17153;51.212;3.228;2022-08-07T01:40:53;21.80;88.60
23065;DHT22;17153;51.212;3.228;2022-08-07T01:43:19;21.80;88.70
23065;DHT22;17153;51.212;3.228;2022-08-07T01:45:45;21.80;88.70
23065;DHT22;17153;51.212;3.228;2022-08-07T01:48:11;21.80;88.70
23065;DHT22;17153;51.212;3.228;2022-08-07T01:50:37;21.80;88.80
23065;DHT22;17153;51.212;3.228;2022-08-07T01:53:05;21.80;88.90
23065;DHT22;17153;51.212;3.228;2022-08-07T01:55:49;21.80;89.00
23065;DHT22;17153;51.212;3.228;2022-08-07T01:58:18;21.80;89.00
23065;DHT22;17153;51.212;3.228;2022-08-07T02:00:46;21.80;89.00
23065;DHT22;17153;51.212;3.228;2022-08-07T02:03:14;21.70;89.00
23065;DHT22;17153;51.212;3.228;2022-08-07T02:05:57;21.70;89.80
23065;DHT22;17153;51.212;3.228;2022-08-07T02:08:24;21.70;89.10
23065;DHT22;17153;51.212;3.228;2022-08-07T02:10:51;21.70;89.20
23065;DHT22;17153;51.212;3.228;2022-08-07T02:13:27;21.70;89.30
23065;DHT22;17153;51.212;3.228;2022-08-07T02:15:54;21.70;89.50
23065;DHT22;17153;51.212;3.228;2022-08-07T02:18:22;21.60;89.40
23065;DHT22;17153;51.212;3.228;2022-08-07T02:20:52;21.60;89.60
23065;DHT22;17153;51.212;3.228;2022-08-07T02:23:19;21.60;89.60
23065;DHT22;17153;51.212;3.228;2022-08-07T02:25:46;21.50;89.60
23065;DHT22;17153;51.212;3.228;2022-08-07T02:28:13;21.50;89.70
23065;DHT22;17153;51.212;3.228;2022-08-07T02:30:40;21.50;89.80
23065;DHT22;17153;51.212;3.228;2022-08-07T02:33:07;21.50;90.00
23065;DHT22;17153;51.212;3.228;2022-08-07T02:35:36;21.50;90.00
23065;DHT22;17153;51.212;3.228;2022-08-07T02:38:02;21.50;90.00
23065;DHT22;17153;51.212;3.228;2022-08-07T02:40:30;21.40;90.00
23065;DHT22;17153;51.212;3.228;2022-08-07T02:42:57;21.40;90.00
23065;DHT22;17153;51.212;3.228;2022-08-07T02:45:27;21.40;90.00
23065;DHT22;17153;51.212;3.228;2022-08-07T02:47:55;21.40;90.00
23065;DHT22;17153;51.212;3.228;2022-08-07T02:50:21;21.40;90.00
23065;DHT22;17153;51.212;3.228;2022-08-07T02:52:53;21.40;90.10
23065;DHT22;17153;51.212;3.228;2022-08-07T02:55:23;21.30;90.10
23065;DHT22;17153;51.212;3.228;2022-08-07T02:57:50;21.30;90.20
23065;DHT22;17153;51.212;3.228;2022-08-07T03:00:17;21.30;90.20
23065;DHT22;17153;51.212;3.228;2022-08-07T03:02:46;21.30;90.20
23065;DHT22;17153;51.212;3.228;2022-08-07T03:05:13;21.40;90.30
23065;DHT22;17153;51.212;3.228;2022-08-07T03:07:40;21.30;90.20
23065;DHT22;17153;51.212;3.228;2022-08-07T03:10:08;21.30;90.20
23065;DHT22;17153;51.212;3.228;2022-08-07T03:12:34;21.30;90.30
23065;DHT22;17153;51.212;3.228;2022-08-07T03:15:01;21.30;90.30
23065;DHT22;17153;51.212;3.228;2022-08-07T03:17:28;21.30;90.30
23065;DHT22;17153;51.212;3.228;2022-08-07T03:19:54;21.30;90.40
23065;DHT22;17153;51.212;3.228;2022-08-07T03:22:21;21.30;90.40
23065;DHT22;17153;51.212;3.228;2022-08-07T03:24:48;21.20;90.70
23065;DHT22;17153;51.212;3.228;2022-08-07T03:27:15;21.20;90.50
23065;DHT22;17153;51.212;3.228;2022-08-07T03:29:49;21.20;90.50
23065;DHT22;17153;51.212;3.228;2022-08-07T03:32:19;21.20;90.60
23065;DHT22;17153;51.212;3.228;2022-08-07T03:34:47;21.20;90.60
23065;DHT22;17153;51.212;3.228;2022-08-07T03:37:17;21.20;90.60
23065;DHT22;17153;51.212;3.228;2022-08-07T03:39:44;21.10;90.60
23065;DHT22;17153;51.212;3.228;2022-08-07T03:42:14;21.20;90.60
23065;DHT22;17153;51.212;3.228;2022-08-07T03:44:40;21.10;90.60
23065;DHT22;17153;51.212;3.228;2022-08-07T03:47:06;21.10;90.70
23065;DHT22;17153;51.212;3.228;2022-08-07T03:49:33;21.10;90.70
23065;DHT22;17153;51.212;3.228;2022-08-07T03:51:59;21.10;90.70
23065;DHT22;17153;51.212;3.228;2022-08-07T03:54:25;21.10;90.80
23065;DHT22;17153;51.212;3.228;2022-08-07T03:56:52;21.10;90.80
23065;DHT22;17153;51.212;3.228;2022-08-07T03:59:18;21.00;90.80
23065;DHT22;17153;51.212;3.228;2022-08-07T04:01:45;21.00;90.90
23065;DHT22;17153;51.212;3.228;2022-08-07T04:04:11;21.00;91.00
23065;DHT22;17153;51.212;3.228;2022-08-07T04:06:37;21.00;91.00
23065;DHT22;17153;51.212;3.228;2022-08-07T04:09:06;21.00;91.10
23065;DHT22;17153;51.212;3.228;2022-08-07T04:11:33;21.00;91.10
23065;DHT22;17153;51.212;3.228;2022-08-07T04:14:00;21.00;91.10
23065;DHT22;17153;51.212;3.228;2022-08-07T04:16:27;21.00;91.60
23065;DHT22;17153;51.212;3.228;2022-08-07T04:18:53;20.90;91.20
23065;DHT22;17153;51.212;3.228;2022-08-07T04:21:19;20.90;91.30
23065;DHT22;17153;51.212;3.228;2022-08-07T04:23:46;20.90;91.70
23065;DHT22;17153;51.212;3.228;2022-08-07T04:26:13;20.90;91.40
23065;DHT22;17153;51.212;3.228;2022-08-07T04:28:42;20.90;91.40
23065;DHT22;17153;51.212;3.228;2022-08-07T04:31:08;20.90;91.40
23065;DHT22;17153;51.212;3.228;2022-08-07T04:33:35;20.90;91.40
23065;DHT22;17153;51.212;3.228;2022-08-07T04:36:05;20.90;91.40
23065;DHT22;17153;51.212;3.228;2022-08-07T04:38:33;20.90;91.40
23065;DHT22;17153;51.212;3.228;2022-08-07T04:40:59;20.90;91.40
23065;DHT22;17153;51.212;3.228;2022-08-07T04:43:33;20.90;91.40
23065;DHT22;17153;51.212;3.228;2022-08-07T04:49:18;20.80;91.40
23065;DHT22;17153;51.212;3.228;2022-08-07T05:05:44;20.80;91.70
23065;DHT22;17153;51.212;3.228;2022-08-07T05:08:49;20.80;91.70
23065;DHT22;17153;51.212;3.228;2022-08-07T05:11:24;20.80;91.80
23065;DHT22;17153;51.212;3.228;2022-08-07T05:13:57;20.80;91.80
23065;DHT22;17153;51.212;3.228;2022-08-07T05:16:24;20.80;91.80
23065;DHT22;17153;51.212;3.228;2022-08-07T05:18:58;20.80;91.80
23065;DHT22;17153;51.212;3.228;2022-08-07T05:21:26;20.80;91.80
23065;DHT22;17153;51.212;3.228;2022-08-07T05:24:03;20.70;91.80
23065;DHT22;17153;51.212;3.228;2022-08-07T05:26:32;20.70;91.80
23065;DHT22;17153;51.212;3.228;2022-08-07T05:29:00;20.70;91.90
23065;DHT22;17153;51.212;3.228;2022-08-07T05:31:38;20.70;91.90
23065;DHT22;17153;51.212;3.228;2022-08-07T05:34:07;20.70;91.90
23065;DHT22;17153;51.212;3.228;2022-08-07T05:36:33;20.70;91.90
23065;DHT22;17153;51.212;3.228;2022-08-07T05:39:02;20.70;91.90
23065;DHT22;17153;51.212;3.228;2022-08-07T05:41:29;20.80;91.90
23065;DHT22;17153;51.212;3.228;2022-08-07T05:43:56;20.80;91.90
23065;DHT22;17153;51.212;3.228;2022-08-07T05:46:23;20.80;92.00
23065;DHT22;17153;51.212;3.228;2022-08-07T05:48:52;20.80;92.00
23065;DHT22;17153;51.212;3.228;2022-08-07T05:51:19;20.80;92.00
23065;DHT22;17153;51.212;3.228;2022-08-07T05:53:46;20.80;92.00
23065;DHT22;17153;51.212;3.228;2022-08-07T05:56:15;20.80;92.00
23065;DHT22;17153;51.212;3.228;2022-08-07T05:58:42;20.80;92.10
23065;DHT22;17153;51.212;3.228;2022-08-07T06:01:12;20.80;92.10
23065;DHT22;17153;51.212;3.228;2022-08-07T06:03:40;20.80;92.10
23065;DHT22;17153;51.212;3.228;2022-08-07T06:06:08;20.80;92.10
23065;DHT22;17153;51.212;3.228;2022-08-07T06:08:35;20.70;92.10
23065;DHT22;17153;51.212;3.228;2022-08-07T06:11:02;20.80;92.10
23065;DHT22;17153;51.212;3.228;2022-08-07T06:13:27;20.80;92.10
23065;DHT22;17153;51.212;3.228;2022-08-07T06:15:53;20.90;92.10
23065;DHT22;17153;51.212;3.228;2022-08-07T06:18:20;20.90;91.90
23065;DHT22;17153;51.212;3.228;2022-08-07T06:20:47;20.90;91.80
23065;DHT22;17153;51.212;3.228;2022-08-07T06:23:13;20.90;91.80
23065;DHT22;17153;51.212;3.228;2022-08-07T06:25:40;20.90;91.80
23065;DHT22;17153;51.212;3.228;2022-08-07T06:28:10;20.90;91.80
23065;DHT22;17153;51.212;3.228;2022-08-07T06:30:36;20.90;91.80
23065;DHT22;17153;51.212;3.228;2022-08-07T06:33:03;20.90;91.60
23065;DHT22;17153;51.212;3.228;2022-08-07T06:35:31;21.00;91.60
23065;DHT22;17153;51.212;3.228;2022-08-07T06:37:56;20.90;91.50
23065;DHT22;17153;51.212;3.228;2022-08-07T06:40:23;21.00;91.40
23065;DHT22;17153;51.212;3.228;2022-08-07T06:42:50;21.00;91.40
23065;DHT22;17153;51.212;3.228;2022-08-07T06:45:18;21.00;91.40
23065;DHT22;17153;51.212;3.228;2022-08-07T06:47:45;21.00;91.40
23065;DHT22;17153;51.212;3.228;2022-08-07T06:50:11;21.00;91.30
23065;DHT22;17153;51.212;3.228;2022-08-07T06:52:41;21.10;91.20
23065;DHT22;17153;51.212;3.228;2022-08-07T06:55:12;21.10;91.10
23065;DHT22;17153;51.212;3.228;2022-08-07T06:57:38;21.10;91.10
23065;DHT22;17153;51.212;3.228;2022-08-07T07:00:05;21.10;91.00
23065;DHT22;17153;51.212;3.228;2022-08-07T07:02:32;21.10;91.00
23065;DHT22;17153;51.212;3.228;2022-08-07T07:04:58;21.10;90.90
23065;DHT22;17153;51.212;3.228;2022-08-07T07:07:23;21.00;90.90
23065;DHT22;17153;51.212;3.228;2022-08-07T07:09:49;21.10;90.90
23065;DHT22;17153;51.212;3.228;2022-08-07T07:12:45;21.20;90.90
23065;DHT22;17153;51.212;3.228;2022-08-07T07:15:28;21.20;90.80
23065;DHT22;17153;51.212;3.228;2022-08-07T07:20:35;21.30;90.30
23065;DHT22;17153;51.212;3.228;2022-08-07T07:23:02;21.30;90.20
23065;DHT22;17153;51.212;3.228;2022-08-07T07:25:29;21.30;90.10
23065;DHT22;17153;51.212;3.228;2022-08-07T07:30:34;21.30;90.10
23065;DHT22;17153;51.212;3.228;2022-08-07T07:33:01;21.40;90.20
23065;DHT22;17153;51.212;3.228;2022-08-07T07:35:29;21.40;90.10
23065;DHT22;17153;51.212;3.228;2022-08-07T07:37:57;21.50;90.00
23065;DHT22;17153;51.212;3.228;2022-08-07T07:40:25;21.50;89.70
23065;DHT22;17153;51.212;3.228;2022-08-07T07:42:53;21.60;89.50
23065;DHT22;17153;51.212;3.228;2022-08-07T07:45:22;21.60;88.70
23065;DHT22;17153;51.212;3.228;2022-08-07T07:47:50;21.70;88.60
23065;DHT22;17153;51.212;3.228;2022-08-07T07:50:17;21.70;89.30
23065;DHT22;17153;51.212;3.228;2022-08-07T07:52:44;21.70;88.50
23065;DHT22;17153;51.212;3.228;2022-08-07T07:55:11;21.70;88.60
23065;DHT22;17153;51.212;3.228;2022-08-07T07:57:38;21.80;88.60
23065;DHT22;17153;51.212;3.228;2022-08-07T08:00:06;21.80;88.50
23065;DHT22;17153;51.212;3.228;2022-08-07T08:02:34;21.90;88.40
23065;DHT22;17153;51.212;3.228;2022-08-07T08:05:05;21.90;88.50
23065;DHT22;17153;51.212;3.228;2022-08-07T08:07:32;21.80;88.50
23065;DHT22;17153;51.212;3.228;2022-08-07T08:10:00;21.90;88.40
23065;DHT22;17153;51.212;3.228;2022-08-07T08:12:27;21.90;88.10
23065;DHT22;17153;51.212;3.228;2022-08-07T08:14:53;21.90;87.80
23065;DHT22;17153;51.212;3.228;2022-08-07T08:17:20;21.90;87.90
23065;DHT22;17153;51.212;3.228;2022-08-07T08:19:49;21.90;87.30
23065;DHT22;17153;51.212;3.228;2022-08-07T08:22:18;22.00;87.00
23065;DHT22;17153;51.212;3.228;2022-08-07T08:25:02;22.10;87.00
23065;DHT22;17153;51.212;3.228;2022-08-07T08:27:52;22.10;87.10
23065;DHT22;17153;51.212;3.228;2022-08-07T08:30:23;22.00;87.30
23065;DHT22;17153;51.212;3.228;2022-08-07T08:32:57;22.10;87.20
23065;DHT22;17153;51.212;3.228;2022-08-07T08:35:26;22.20;87.00
23065;DHT22;17153;51.212;3.228;2022-08-07T08:37:57;22.20;86.80
23065;DHT22;17153;51.212;3.228;2022-08-07T08:40:31;22.30;86.20
23065;DHT22;17153;51.212;3.228;2022-08-07T08:43:32;22.30;86.00
23065;DHT22;17153;51.212;3.228;2022-08-07T08:46:12;22.40;85.40
23065;DHT22;17153;51.212;3.228;2022-08-07T08:49:04;22.50;85.00
23065;DHT22;17153;51.212;3.228;2022-08-07T08:51:37;22.60;84.70
23065;DHT22;17153;51.212;3.228;2022-08-07T08:56:58;22.80;84.20
23065;DHT22;17153;51.212;3.228;2022-08-07T08:59:32;23.00;83.60
23065;DHT22;17153;51.212;3.228;2022-08-07T09:02:55;23.10;83.20
23065;DHT22;17153;51.212;3.228;2022-08-07T09:19:01;24.20;81.10
23065;DHT22;17153;51.212;3.228;2022-08-07T09:27:50;24.50;80.20
23065;DHT22;17153;51.212;3.228;2022-08-07T09:30:17;24.60;80.20
23065;DHT22;17153;51.212;3.228;2022-08-07T09:33:07;24.60;80.00
23065;DHT22;17153;51.212;3.228;2022-08-07T09:36:00;24.70;79.80
23065;DHT22;17153;51.212;3.228;2022-08-07T09:52:29;25.30;78.50
23065;DHT22;17153;51.212;3.228;2022-08-07T09:57:49;25.40;78.10
23065;DHT22;17153;51.212;3.228;2022-08-07T10:00:20;25.50;77.80
23065;DHT22;17153;51.212;3.228;2022-08-07T10:16:37;25.40;77.20
23065;DHT22;17153;51.212;3.228;2022-08-07T10:20:10;25.30;78.20
23065;DHT22;17153;51.212;3.228;2022-08-07T10:22:31;25.50;77.80
23065;DHT22;17153;51.212;3.228;2022-08-07T10:28:09;25.90;76.70
23065;DHT22;17153;51.212;3.228;2022-08-07T10:30:52;26.10;76.70
23065;DHT22;17153;51.212;3.228;2022-08-07T10:43:43;26.90;75.20
23065;DHT22;17153;51.212;3.228;2022-08-07T10:46:18;27.10;75.40
23065;DHT22;17153;51.212;3.228;2022-08-07T10:48:58;27.30;75.40
23065;DHT22;17153;51.212;3.228;2022-08-07T11:10:38;28.50;71.90
23065;DHT22;17153;51.212;3.228;2022-08-07T11:15:54;28.70;70.80
23065;DHT22;17153;51.212;3.228;2022-08-07T11:29:43;29.30;70.00
23065;DHT22;17153;51.212;3.228;2022-08-07T11:35:20;29.60;68.20
23065;DHT22;17153;51.212;3.228;2022-08-07T11:43:13;29.70;67.90
23065;DHT22;17153;51.212;3.228;2022-08-07T12:02:10;30.10;66.90
23065;DHT22;17153;51.212;3.228;2022-08-07T12:07:33;30.10;66.60
23065;DHT22;17153;51.212;3.228;2022-08-07T12:10:07;30.10;67.20
23065;DHT22;17153;51.212;3.228;2022-08-07T12:12:41;30.10;67.30
23065;DHT22;17153;51.212;3.228;2022-08-07T12:15:14;30.20;66.80
23065;DHT22;17153;51.212;3.228;2022-08-07T12:17:47;30.30;66.40
23065;DHT22;17153;51.212;3.228;2022-08-07T12:20:27;30.30;65.20
23065;DHT22;17153;51.212;3.228;2022-08-07T12:23:10;30.40;64.10
23065;DHT22;17153;51.212;3.228;2022-08-07T12:25:45;30.50;63.80
23065;DHT22;17153;51.212;3.228;2022-08-07T12:30:52;30.50;64.70
23065;DHT22;17153;51.212;3.228;2022-08-07T12:33:23;30.60;63.10
23065;DHT22;17153;51.212;3.228;2022-08-07T12:35:51;30.60;65.30
23065;DHT22;17153;51.212;3.228;2022-08-07T12:38:19;30.60;64.40
23065;DHT22;17153;51.212;3.228;2022-08-07T12:40:47;30.60;63.90
23065;DHT22;17153;51.212;3.228;2022-08-07T12:43:16;30.50;64.50
23065;DHT22;17153;51.212;3.228;2022-08-07T12:46:31;30.50;63.90
23065;DHT22;17153;51.212;3.228;2022-08-07T12:49:18;30.60;64.30
23065;DHT22;17153;51.212;3.228;2022-08-07T12:52:10;30.70;64.50
23065;DHT22;17153;51.212;3.228;2022-08-07T12:55:07;30.60;64.00
23065;DHT22;17153;51.212;3.228;2022-08-07T12:57:37;30.70;64.00
23065;DHT22;17153;51.212;3.228;2022-08-07T13:00:04;30.70;63.80
23065;DHT22;17153;51.212;3.228;2022-08-07T13:05:35;30.70;62.00
23065;DHT22;17153;51.212;3.228;2022-08-07T13:13:54;30.80;62.60
23065;DHT22;17153;51.212;3.228;2022-08-07T13:21:45;30.70;63.10
23065;DHT22;17153;51.212;3.228;2022-08-07T13:26:59;30.80;63.10
23065;DHT22;17153;51.212;3.228;2022-08-07T13:38:13;30.60;63.40
23065;DHT22;17153;51.212;3.228;2022-08-07T13:43:14;30.60;62.80
23065;DHT22;17153;51.212;3.228;2022-08-07T13:45:44;30.60;63.60
23065;DHT22;17153;51.212;3.228;2022-08-07T13:48:11;30.40;63.40
23065;DHT22;17153;51.212;3.228;2022-08-07T13:50:40;30.50;63.50
23065;DHT22;17153;51.212;3.228;2022-08-07T13:53:07;30.50;63.00
23065;DHT22;17153;51.212;3.228;2022-08-07T13:55:34;30.50;62.20
23065;DHT22;17153;51.212;3.228;2022-08-07T13:58:09;30.40;62.50
23065;DHT22;17153;51.212;3.228;2022-08-07T14:00:55;30.40;63.10
23065;DHT22;17153;51.212;3.228;2022-08-07T14:03:24;30.40;62.90
23065;DHT22;17153;51.212;3.228;2022-08-07T14:05:54;30.40;62.80
23065;DHT22;17153;51.212;3.228;2022-08-07T14:08:26;30.40;63.00
23065;DHT22;17153;51.212;3.228;2022-08-07T14:10:55;30.20;63.40
23065;DHT22;17153;51.212;3.228;2022-08-07T14:13:27;30.30;63.40
23065;DHT22;17153;51.212;3.228;2022-08-07T14:16:01;30.30;62.80
23065;DHT22;17153;51.212;3.228;2022-08-07T14:18:39;30.30;62.70
23065;DHT22;17153;51.212;3.228;2022-08-07T14:21:14;30.20;63.20
23065;DHT22;17153;51.212;3.228;2022-08-07T14:23:55;30.20;63.40
23065;DHT22;17153;51.212;3.228;2022-08-07T14:26:36;30.10;63.20
23065;DHT22;17153;51.212;3.228;2022-08-07T14:29:06;30.10;63.00
23065;DHT22;17153;51.212;3.228;2022-08-07T14:31:34;30.10;63.00
23065;DHT22;17153;51.212;3.228;2022-08-07T14:34:00;30.00;63.50
23065;DHT22;17153;51.212;3.228;2022-08-07T14:36:30;30.00;63.40
23065;DHT22;17153;51.212;3.228;2022-08-07T14:39:00;30.00;63.50
23065;DHT22;17153;51.212;3.228;2022-08-07T14:41:28;30.00;63.60
23065;DHT22;17153;51.212;3.228;2022-08-07T14:43:57;30.00;63.80
23065;DHT22;17153;51.212;3.228;2022-08-07T14:46:27;30.00;63.80
23065;DHT22;17153;51.212;3.228;2022-08-07T14:48:54;29.80;64.30
23065;DHT22;17153;51.212;3.228;2022-08-07T14:51:24;29.80;64.50
23065;DHT22;17153;51.212;3.228;2022-08-07T14:53:55;29.80;65.40
23065;DHT22;17153;51.212;3.228;2022-08-07T14:56:30;29.80;64.70
23065;DHT22;17153;51.212;3.228;2022-08-07T14:59:01;29.70;64.60
23065;DHT22;17153;51.212;3.228;2022-08-07T15:01:30;29.80;64.90
23065;DHT22;17153;51.212;3.228;2022-08-07T15:04:04;29.60;64.80
23065;DHT22;17153;51.212;3.228;2022-08-07T15:06:32;29.60;66.00
23065;DHT22;17153;51.212;3.228;2022-08-07T15:09:08;29.50;65.10
23065;DHT22;17153;51.212;3.228;2022-08-07T15:11:50;29.40;65.10
23065;DHT22;17153;51.212;3.228;2022-08-07T15:14:24;29.40;65.60
23065;DHT22;17153;51.212;3.228;2022-08-07T15:16:55;29.40;65.10
23065;DHT22;17153;51.212;3.228;2022-08-07T15:19:27;29.40;65.30
23065;DHT22;17153;51.212;3.228;2022-08-07T15:21:56;29.30;65.50
23065;DHT22;17153;51.212;3.228;2022-08-07T15:24:37;29.30;66.20
23065;DHT22;17153;51.212;3.228;2022-08-07T15:27:15;29.30;66.30
23065;DHT22;17153;51.212;3.228;2022-08-07T15:29:44;29.20;66.70
23065;DHT22;17153;51.212;3.228;2022-08-07T15:32:11;29.20;66.60
23065;DHT22;17153;51.212;3.228;2022-08-07T15:34:45;29.20;65.40
23065;DHT22;17153;51.212;3.228;2022-08-07T15:37:13;29.20;65.70
23065;DHT22;17153;51.212;3.228;2022-08-07T15:39:45;29.10;65.80
23065;DHT22;17153;51.212;3.228;2022-08-07T15:47:53;29.00;66.20
23065;DHT22;17153;51.212;3.228;2022-08-07T15:50:21;28.90;66.60
23065;DHT22;17153;51.212;3.228;2022-08-07T15:52:51;28.90;67.10
23065;DHT22;17153;51.212;3.228;2022-08-07T15:55:22;28.90;67.70
23065;DHT22;17153;51.212;3.228;2022-08-07T15:57:51;28.80;67.90
23065;DHT22;17153;51.212;3.228;2022-08-07T16:00:19;28.80;67.30
23065;DHT22;17153;51.212;3.228;2022-08-07T16:02:46;28.70;67.10
23065;DHT22;17153;51.212;3.228;2022-08-07T16:05:18;28.70;67.10
23065;DHT22;17153;51.212;3.228;2022-08-07T16:08:22;28.60;66.20
23065;DHT22;17153;51.212;3.228;2022-08-07T16:11:30;28.60;67.30
23065;DHT22;17153;51.212;3.228;2022-08-07T16:14:13;28.40;68.00
23065;DHT22;17153;51.212;3.228;2022-08-07T16:17:02;28.40;67.80
23065;DHT22;17153;51.212;3.228;2022-08-07T16:25:41;28.30;68.20
23065;DHT22;17153;51.212;3.228;2022-08-07T16:28:41;28.20;68.00
23065;DHT22;17153;51.212;3.228;2022-08-07T16:34:00;28.10;67.50
23065;DHT22;17153;51.212;3.228;2022-08-07T16:39:29;28.00;67.50
23065;DHT22;17153;51.212;3.228;2022-08-07T16:53:28;27.80;68.50
23065;DHT22;17153;51.212;3.228;2022-08-07T16:58:52;27.60;68.20
23065;DHT22;17153;51.212;3.228;2022-08-07T17:04:09;27.50;68.50
23065;DHT22;17153;51.212;3.228;2022-08-07T17:09:17;27.40;68.70
23065;DHT22;17153;51.212;3.228;2022-08-07T17:12:08;27.50;69.00
23065;DHT22;17153;51.212;3.228;2022-08-07T17:15:00;27.40;69.60
23065;DHT22;17153;51.212;3.228;2022-08-07T17:19:58;27.30;70.00
23065;DHT22;17153;51.212;3.228;2022-08-07T17:22:33;27.30;69.50
23065;DHT22;17153;51.212;3.228;2022-08-07T17:27:32;27.30;69.40
23065;DHT22;17153;51.212;3.228;2022-08-07T17:30:09;27.20;69.10
23065;DHT22;17153;51.212;3.228;2022-08-07T17:35:38;27.10;70.20
23065;DHT22;17153;51.212;3.228;2022-08-07T17:38:11;27.20;70.50
23065;DHT22;17153;51.212;3.228;2022-08-07T17:41:16;27.10;70.80
23065;DHT22;17153;51.212;3.228;2022-08-07T17:43:57;27.10;71.40
23065;DHT22;17153;51.212;3.228;2022-08-07T17:46:41;27.00;71.70
23065;DHT22;17153;51.212;3.228;2022-08-07T17:49:18;26.90;72.20
23065;DHT22;17153;51.212;3.228;2022-08-07T17:52:29;26.90;72.50
23065;DHT22;17153;51.212;3.228;2022-08-07T17:55:37;26.90;72.10
23065;DHT22;17153;51.212;3.228;2022-08-07T17:58:29;26.90;71.70
23065;DHT22;17153;51.212;3.228;2022-08-07T18:00:56;26.80;72.50
23065;DHT22;17153;51.212;3.228;2022-08-07T18:03:30;26.70;72.80
23065;DHT22;17153;51.212;3.228;2022-08-07T18:06:05;26.80;73.30
23065;DHT22;17153;51.212;3.228;2022-08-07T18:08:44;26.70;73.60
23065;DHT22;17153;51.212;3.228;2022-08-07T18:11:20;26.70;73.40
23065;DHT22;17153;51.212;3.228;2022-08-07T18:16:32;26.70;73.10
23065;DHT22;17153;51.212;3.228;2022-08-07T18:19:09;26.60;73.60
23065;DHT22;17153;51.212;3.228;2022-08-07T18:21:41;26.50;74.00
23065;DHT22;17153;51.212;3.228;2022-08-07T18:24:19;26.50;74.40
23065;DHT22;17153;51.212;3.228;2022-08-07T18:40:53;26.30;75.70
23065;DHT22;17153;51.212;3.228;2022-08-07T18:43:36;26.20;76.00
23065;DHT22;17153;51.212;3.228;2022-08-07T18:46:07;26.20;76.20
23065;DHT22;17153;51.212;3.228;2022-08-07T18:49:00;26.10;76.40
23065;DHT22;17153;51.212;3.228;2022-08-07T18:51:49;26.10;76.60
23065;DHT22;17153;51.212;3.228;2022-08-07T18:54:41;26.10;76.80
23065;DHT22;17153;51.212;3.228;2022-08-07T19:00:07;26.00;76.60
23065;DHT22;17153;51.212;3.228;2022-08-07T19:02:50;26.00;76.90
23065;DHT22;17153;51.212;3.228;2022-08-07T19:05:32;26.00;77.00
23065;DHT22;17153;51.212;3.228;2022-08-07T19:08:10;26.00;77.20
23065;DHT22;17153;51.212;3.228;2022-08-07T19:10:47;26.00;77.40
23065;DHT22;17153;51.212;3.228;2022-08-07T19:13:46;25.90;77.60
23065;DHT22;17153;51.212;3.228;2022-08-07T19:16:33;25.90;77.80
23065;DHT22;17153;51.212;3.228;2022-08-07T19:22:01;25.80;78.20
23065;DHT22;17153;51.212;3.228;2022-08-07T19:24:49;25.80;78.40
23065;DHT22;17153;51.212;3.228;2022-08-07T19:27:19;25.80;78.60
23065;DHT22;17153;51.212;3.228;2022-08-07T19:29:51;25.80;78.70
23065;DHT22;17153;51.212;3.228;2022-08-07T19:32:18;25.80;79.00
23065;DHT22;17153;51.212;3.228;2022-08-07T19:34:51;25.70;79.00
23065;DHT22;17153;51.212;3.228;2022-08-07T19:37:20;25.70;79.30
23065;DHT22;17153;51.212;3.228;2022-08-07T19:39:54;25.70;79.50
23065;DHT22;17153;51.212;3.228;2022-08-07T19:42:21;25.70;79.60
23065;DHT22;17153;51.212;3.228;2022-08-07T19:44:52;25.60;79.70
23065;DHT22;17153;51.212;3.228;2022-08-07T19:47:27;25.60;79.90
23065;DHT22;17153;51.212;3.228;2022-08-07T19:49:54;25.60;80.00
23065;DHT22;17153;51.212;3.228;2022-08-07T19:52:26;25.50;80.10
23065;DHT22;17153;51.212;3.228;2022-08-07T19:54:52;25.50;80.40
23065;DHT22;17153;51.212;3.228;2022-08-07T19:57:34;25.40;81.10
23065;DHT22;17153;51.212;3.228;2022-08-07T20:00:05;25.40;80.60
23065;DHT22;17153;51.212;3.228;2022-08-07T20:02:41;25.40;80.80
23065;DHT22;17153;51.212;3.228;2022-08-07T20:05:10;25.40;80.90
23065;DHT22;17153;51.212;3.228;2022-08-07T20:07:37;25.30;80.90